Laramie Regional Airport Laramie US
ICAO: KLAR
IATA: LAR
Category: Medium
Scheduled Services: Yes

Elevation: 7284 ft
TransAlt. 18000 ft.

Airport Communications:
ASOS:135.475
DENVER CNTR:125.9
CASPER RDO:122.6
CTAF/UNICOM:123.05

KLAR Zoom In..

Runways:

(A) RW 03 length 8502 ft width 150 ft
---- / hdg 33

(B) RW 12 length 6300 ft width 100 ft
---- / hdg 122

(C) RW 21 length 8502 ft width 150 ft
---- / hdg 213

(D) RW 30 length 6300 ft width 100 ft
---- / hdg 302

Location; KLAR
Day. 20 / Time. 09.53 Zulu
* Altimeter: 29.92
* Temperature: 01° c. 33.8°f.
* Wind from: 160° Speed 12 kn.
Dewpoint: -06° c.
Visibility: 10 Statute Miles.
Clouds: Clear (automated report).

KLAR 200953Z AUTO 16012KT 10SM CLR 01/M06 A2992 RMK AO2 SLP082 T00061056


Wind From 160°
Speed 12 kn.

  YouTube Music Video
 
jpsmedia.com for Web Design  worldairports.se 2018   terms of use